< < Back
Terminal Aerodrome Forecast


Current Version              Previous Versions:   1  2  3  4  5  6  7  8  9  

Terminal Aerodrome Forecast

583
FTUS42 KJAX 262344
TAFJAX
TAF
KJAX 262344Z 2700/2724 09009KT P6SM SKC
     FM270200 10003KT P6SM SKC
     FM271400 08012KT P6SM FEW040=



Latest METAR

142
SAUS80 KWBC 272000
MTRJAX
METAR KJAX 271956Z 09013KT 10SM FEW029 BKN060 BKN075 26/19 A3004 RMK AO2
SLP174 T02610189


USA.gov is the U.S. government's official web portal to all federal, state and local government web resources and services.